createdAt,value
2019-03-27T00:00:42.017Z,80.13
2019-03-27T00:01:42.138Z,80.04
2019-03-27T00:02:42.289Z,79.94
2019-03-27T00:03:42.403Z,79.94
2019-03-27T00:04:42.539Z,80.33
2019-03-27T00:05:42.672Z,80.13
2019-03-27T00:06:42.798Z,80.10
2019-03-27T00:07:42.935Z,79.94
2019-03-27T00:08:43.144Z,80.23
2019-03-27T00:09:43.198Z,80.23
2019-03-27T00:10:43.316Z,80.42
2019-03-27T00:11:43.464Z,80.33
2019-03-27T00:12:43.595Z,80.19
2019-03-27T00:13:43.726Z,80.23
2019-03-27T00:14:43.857Z,80.19
2019-03-27T00:15:43.994Z,79.94
2019-03-27T00:16:44.112Z,79.57
2019-03-27T00:17:44.242Z,79.52
2019-03-27T00:18:44.405Z,80.10
2019-03-27T00:19:44.535Z,79.72
2019-03-27T00:20:44.665Z,79.85
2019-03-27T00:21:44.792Z,79.75
2019-03-27T00:22:44.937Z,79.38
2019-03-27T00:23:45.054Z,79.38
2019-03-27T00:24:45.183Z,79.28
2019-03-27T00:25:45.311Z,78.90
2019-03-27T00:26:45.458Z,78.71
2019-03-27T00:27:45.585Z,78.80
2019-03-27T00:28:45.710Z,78.80
2019-03-27T00:29:45.863Z,78.71
2019-03-27T00:30:45.992Z,78.90
2019-03-27T00:31:46.120Z,79.19
2019-03-27T00:32:46.248Z,78.99
2019-03-27T00:33:46.402Z,78.99
2019-03-27T00:34:46.536Z,79.09
2019-03-27T00:35:46.660Z,78.99
2019-03-27T00:36:46.797Z,78.90
2019-03-27T00:37:46.983Z,79.09
2019-03-27T00:38:47.091Z,78.90
2019-03-27T00:39:47.221Z,78.80
2019-03-27T00:40:47.374Z,78.99
2019-03-27T00:41:47.489Z,78.71
2019-03-27T00:42:47.617Z,78.71
2019-03-27T00:43:47.758Z,78.61
2019-03-27T00:44:47.911Z,78.80
2019-03-27T00:45:48.037Z,78.23
2019-03-27T00:46:48.155Z,78.33
2019-03-27T00:47:48.286Z,78.14
2019-03-27T00:48:48.436Z,78.04
2019-03-27T00:49:48.553Z,78.14
2019-03-27T00:50:48.688Z,78.14
2019-03-27T00:51:48.815Z,77.95
2019-03-27T00:52:48.952Z,78.23
2019-03-27T00:53:49.074Z,78.23
2019-03-27T00:54:49.197Z,78.14
2019-03-27T00:55:49.333Z,78.33
2019-03-27T00:56:49.487Z,78.52
2019-03-27T00:57:49.600Z,78.14
2019-03-27T00:58:49.727Z,78.04
2019-03-27T00:59:49.855Z,78.14
2019-03-27T01:00:50.009Z,78.23
2019-03-27T01:01:50.133Z,78.04
2019-03-27T01:02:50.254Z,78.14
2019-03-27T01:03:50.379Z,78.52
2019-03-27T01:04:50.512Z,78.14
2019-03-27T01:05:50.635Z,78.80
2019-03-27T01:06:51.189Z,78.52
2019-03-27T01:07:50.892Z,78.61
2019-03-27T01:08:51.041Z,78.80
2019-03-27T01:09:51.168Z,78.90
2019-03-27T01:10:51.291Z,78.80
2019-03-27T01:11:51.428Z,78.90
2019-03-27T01:12:51.547Z,78.90
2019-03-27T01:13:51.672Z,78.90
2019-03-27T01:14:51.801Z,78.80
2019-03-27T01:15:51.929Z,79.09
2019-03-27T01:16:52.057Z,78.90
2019-03-27T01:17:52.193Z,78.61
2019-03-27T01:18:52.304Z,78.80
2019-03-27T01:19:52.427Z,78.80
2019-03-27T01:20:52.610Z,79.66
2019-03-27T01:21:52.704Z,79.19
2019-03-27T01:22:52.829Z,79.47
2019-03-27T01:23:52.960Z,79.28
2019-03-27T01:24:53.090Z,79.38
2019-03-27T01:25:53.219Z,79.38
2019-03-27T01:26:53.340Z,78.99
2019-03-27T01:27:53.468Z,78.99
2019-03-27T01:28:53.611Z,79.66
2019-03-27T01:29:53.739Z,79.38
2019-03-27T01:30:53.867Z,79.38
2019-03-27T01:31:53.998Z,79.57
2019-03-27T01:32:54.140Z,79.57
2019-03-27T01:33:54.268Z,79.57
2019-03-27T01:34:54.392Z,79.28
2019-03-27T01:35:54.540Z,79.47
2019-03-27T01:36:54.662Z,79.57
2019-03-27T01:37:54.791Z,79.19
2019-03-27T01:38:54.937Z,78.80
2019-03-27T01:39:55.072Z,78.90
2019-03-27T01:40:55.199Z,78.61
2019-03-27T01:41:55.335Z,78.52
2019-03-27T01:42:55.475Z,78.80
2019-03-27T01:43:55.599Z,78.71
2019-03-27T01:44:55.740Z,78.71
2019-03-27T01:45:55.868Z,78.61
2019-03-27T01:46:55.993Z,78.90
2019-03-27T01:47:56.119Z,78.71
2019-03-27T01:48:56.249Z,78.71
2019-03-27T01:49:56.380Z,78.99
2019-03-27T01:50:56.506Z,78.80
2019-03-27T01:51:56.637Z,78.80
2019-03-27T01:52:56.761Z,78.99
2019-03-27T01:53:56.915Z,78.71
2019-03-27T01:54:57.034Z,78.71
2019-03-27T01:55:57.169Z,78.80
2019-03-27T01:56:57.296Z,78.80
2019-03-27T01:57:57.438Z,78.90
2019-03-27T01:58:57.559Z,78.80
2019-03-27T01:59:57.688Z,78.90
2019-03-27T02:00:57.908Z,78.90
2019-03-27T02:01:57.967Z,78.99
2019-03-27T02:02:58.091Z,79.09
2019-03-27T02:03:58.219Z,78.99
2019-03-27T02:04:58.345Z,78.90
2019-03-27T02:05:58.484Z,78.80
2019-03-27T02:06:58.613Z,78.99
2019-03-27T02:07:58.743Z,78.99
2019-03-27T02:08:58.866Z,78.99
2019-03-27T02:09:59.000Z,78.80
2019-03-27T02:10:59.136Z,78.71
2019-03-27T02:11:59.337Z,78.99
2019-03-27T02:12:59.378Z,78.90
2019-03-27T02:13:59.530Z,78.99
2019-03-27T02:14:59.652Z,78.80
2019-03-27T02:16:06.726Z,78.99
2019-03-27T02:16:59.916Z,78.99
2019-03-27T02:18:00.064Z,78.90
2019-03-27T02:19:00.169Z,78.90
2019-03-27T02:20:00.465Z,78.80
2019-03-27T02:21:00.416Z,78.90
2019-03-27T02:22:00.568Z,79.47
2019-03-27T02:23:00.691Z,79.38
2019-03-27T02:24:00.814Z,79.19
2019-03-27T02:25:00.937Z,78.90
2019-03-27T02:26:01.067Z,79.57
2019-03-27T02:27:01.188Z,79.38
2019-03-27T02:28:01.327Z,78.71
2019-03-27T02:29:01.455Z,79.28
2019-03-27T02:30:01.575Z,79.19
2019-03-27T02:31:01.693Z,79.47
2019-03-27T02:32:01.821Z,79.38
2019-03-27T02:33:01.951Z,78.99
2019-03-27T02:34:02.113Z,79.09
2019-03-27T02:35:02.214Z,78.67
2019-03-27T02:36:02.343Z,78.71
2019-03-27T02:37:02.461Z,78.86
2019-03-27T02:38:02.596Z,78.71
2019-03-27T02:39:02.724Z,78.90
2019-03-27T02:40:02.865Z,78.99
2019-03-27T02:41:02.999Z,78.99
2019-03-27T02:42:03.138Z,78.71
2019-03-27T02:43:03.261Z,78.48
2019-03-27T02:44:03.397Z,78.90
2019-03-27T02:45:03.519Z,78.71
2019-03-27T02:46:03.649Z,78.90
2019-03-27T02:47:03.771Z,78.80
2019-03-27T02:48:03.902Z,78.90
2019-03-27T02:49:04.047Z,78.67
2019-03-27T02:50:04.172Z,78.71
2019-03-27T02:51:04.310Z,78.90
2019-03-27T02:52:04.439Z,78.90
2019-03-27T02:53:04.566Z,79.14
2019-03-27T02:54:04.688Z,80.10
2019-03-27T02:55:04.814Z,79.62
2019-03-27T02:56:04.930Z,80.00
2019-03-27T02:57:05.067Z,80.10
2019-03-27T02:58:05.190Z,80.66
2019-03-27T02:59:05.319Z,80.29
2019-03-27T03:00:05.460Z,81.14
2019-03-27T03:01:05.581Z,80.86
2019-03-27T03:02:05.706Z,80.66
2019-03-27T03:03:05.846Z,81.05
2019-03-27T03:04:05.961Z,81.43
2019-03-27T03:05:06.088Z,81.52
2019-03-27T03:06:06.221Z,81.33
2019-03-27T03:07:06.342Z,81.62
2019-03-27T03:08:06.493Z,81.14
2019-03-27T03:09:06.626Z,81.33
2019-03-27T03:10:06.748Z,81.71
2019-03-27T03:11:06.873Z,81.33
2019-03-27T03:12:07.026Z,81.14
2019-03-27T03:13:07.155Z,80.95
2019-03-27T03:14:07.283Z,81.05
2019-03-27T03:15:07.416Z,80.76
2019-03-27T03:16:07.547Z,80.66
2019-03-27T03:17:07.667Z,80.86
2019-03-27T03:18:07.808Z,80.66
2019-03-27T03:19:07.924Z,80.29
2019-03-27T03:20:08.078Z,80.00
2019-03-27T03:21:08.195Z,80.00
2019-03-27T03:22:08.313Z,79.81
2019-03-27T03:23:08.446Z,79.81
2019-03-27T03:24:08.595Z,80.10
2019-03-27T03:25:08.727Z,79.91
2019-03-27T03:26:08.845Z,80.10
2019-03-27T03:27:08.992Z,80.10
2019-03-27T03:28:09.127Z,80.19
2019-03-27T03:29:09.241Z,80.57
2019-03-27T03:30:09.379Z,80.38
2019-03-27T03:31:09.505Z,81.05
2019-03-27T03:32:09.626Z,80.57
2019-03-27T03:33:09.778Z,80.47
2019-03-27T03:34:09.896Z,81.05
2019-03-27T03:35:10.024Z,81.14
2019-03-27T03:36:10.154Z,80.38
2019-03-27T03:37:10.280Z,80.76
2019-03-27T03:38:10.406Z,80.47
2019-03-27T03:39:10.534Z,80.57
2019-03-27T03:40:10.662Z,80.95
2019-03-27T03:41:10.793Z,80.38
2019-03-27T03:42:10.918Z,80.76
2019-03-27T03:43:11.043Z,81.14
2019-03-27T03:44:11.171Z,81.14
2019-03-27T03:45:11.426Z,80.19
2019-03-27T03:46:11.530Z,80.86
2019-03-27T03:47:11.563Z,80.57
2019-03-27T03:48:11.701Z,80.57
2019-03-27T03:49:11.838Z,80.66
2019-03-27T03:50:11.971Z,80.76
2019-03-27T03:51:12.082Z,80.86
2019-03-27T03:52:12.215Z,80.66
2019-03-27T03:53:12.365Z,80.66
2019-03-27T03:54:12.471Z,80.66
2019-03-27T03:55:12.604Z,80.66
2019-03-27T03:56:12.729Z,80.86
2019-03-27T03:57:12.861Z,80.10
2019-03-27T03:58:12.979Z,80.66
2019-03-27T03:59:13.118Z,80.66
2019-03-27T04:00:13.339Z,80.19
2019-03-27T04:01:13.368Z,80.10
2019-03-27T04:02:13.503Z,80.00
2019-03-27T04:03:13.627Z,80.10
2019-03-27T04:04:13.759Z,80.10
2019-03-27T04:05:13.882Z,79.91
2019-03-27T04:06:14.048Z,79.91
2019-03-27T04:07:14.143Z,79.91
2019-03-27T04:08:14.273Z,80.19
2019-03-27T04:09:14.410Z,80.29
2019-03-27T04:10:14.541Z,80.00
2019-03-27T04:11:14.679Z,80.38
2019-03-27T04:12:14.804Z,80.19
2019-03-27T04:13:14.929Z,79.91
2019-03-27T04:14:15.058Z,80.00
2019-03-27T04:15:15.208Z,79.81
2019-03-27T04:16:15.363Z,79.81
2019-03-27T04:17:17.612Z,80.10
2019-03-27T04:18:15.607Z,80.10
2019-03-27T04:19:15.749Z,80.10
2019-03-27T04:20:15.869Z,80.10
2019-03-27T04:21:16.012Z,80.00
2019-03-27T04:22:16.129Z,79.81
2019-03-27T04:23:16.266Z,79.72
2019-03-27T04:24:16.390Z,79.72
2019-03-27T04:25:16.510Z,80.10
2019-03-27T04:26:16.639Z,79.81
2019-03-27T04:27:16.802Z,80.10
2019-03-27T04:28:16.909Z,80.00
2019-03-27T04:29:17.050Z,79.72
2019-03-27T04:30:17.174Z,80.38
2019-03-27T04:31:17.316Z,80.00
2019-03-27T04:32:17.441Z,80.00
2019-03-27T04:33:17.571Z,80.29
2019-03-27T04:34:17.705Z,80.47
2019-03-27T04:35:17.843Z,80.19
2019-03-27T04:36:17.973Z,80.19
2019-03-27T04:37:18.092Z,80.29
2019-03-27T04:38:18.218Z,80.19
2019-03-27T04:39:18.349Z,80.00
2019-03-27T04:40:18.477Z,80.00
2019-03-27T04:41:18.606Z,80.29
2019-03-27T04:42:18.763Z,80.00
2019-03-27T04:43:18.877Z,80.00
2019-03-27T04:44:19.004Z,80.29
2019-03-27T04:45:19.128Z,79.91
2019-03-27T04:46:19.278Z,80.57
2019-03-27T04:47:31.500Z,80.63
2019-03-27T04:48:19.529Z,80.86
2019-03-27T04:49:19.735Z,81.43
2019-03-27T04:50:20.009Z,81.33
2019-03-27T04:51:19.896Z,81.24
2019-03-27T04:52:20.054Z,81.33
2019-03-27T04:53:20.184Z,81.33
2019-03-27T04:54:20.319Z,81.52
2019-03-27T04:55:20.448Z,81.43
2019-03-27T04:56:20.574Z,81.43
2019-03-27T04:57:20.685Z,80.66
2019-03-27T04:58:20.820Z,80.76
2019-03-27T04:59:20.949Z,80.95
2019-03-27T05:00:21.115Z,80.76
2019-03-27T05:01:21.219Z,80.76
2019-03-27T05:02:21.353Z,81.05
2019-03-27T05:03:21.488Z,81.05
2019-03-27T05:04:21.607Z,80.86
2019-03-27T05:05:21.750Z,81.14
2019-03-27T05:06:21.863Z,81.14
2019-03-27T05:07:22.007Z,80.47
2019-03-27T05:08:22.133Z,80.57
2019-03-27T05:09:22.249Z,80.57
2019-03-27T05:10:22.379Z,80.19
2019-03-27T05:11:22.511Z,80.76
2019-03-27T05:12:22.720Z,80.95
2019-03-27T05:13:22.774Z,80.66
2019-03-27T05:14:22.898Z,81.05
2019-03-27T05:15:23.027Z,80.47
2019-03-27T05:16:23.169Z,81.10
2019-03-27T05:17:23.282Z,81.01
2019-03-27T05:18:23.414Z,81.20
2019-03-27T05:19:23.544Z,81.48
2019-03-27T05:20:23.696Z,81.29
2019-03-27T05:21:23.815Z,81.48
2019-03-27T05:22:23.945Z,82.05
2019-03-27T05:23:24.075Z,82.05
2019-03-27T05:24:24.256Z,82.05
2019-03-27T05:25:24.366Z,82.05
2019-03-27T05:26:24.490Z,82.15
2019-03-27T05:27:24.622Z,82.05
2019-03-27T05:28:24.789Z,81.96
2019-03-27T05:29:24.951Z,82.15
2019-03-27T05:30:25.015Z,82.15
2019-03-27T05:31:25.139Z,82.15
2019-03-27T05:32:25.300Z,81.86
2019-03-27T05:33:25.411Z,81.73
2019-03-27T05:34:25.536Z,81.92
2019-03-27T05:35:25.681Z,83.44
2019-03-27T05:36:25.813Z,83.91
2019-03-27T05:37:25.929Z,83.44
2019-03-27T05:38:26.082Z,83.91
2019-03-27T05:39:26.194Z,84.20
2019-03-27T05:40:26.319Z,83.91
2019-03-27T05:41:26.448Z,83.91
2019-03-27T05:42:26.589Z,83.91
2019-03-27T05:43:26.722Z,83.82
2019-03-27T05:44:26.848Z,83.82
2019-03-27T05:45:26.989Z,83.15
2019-03-27T05:46:27.113Z,83.44
2019-03-27T05:47:27.243Z,82.91
2019-03-27T05:48:27.372Z,83.15
2019-03-27T05:49:27.501Z,82.71
2019-03-27T05:50:27.623Z,82.62
2019-03-27T05:51:27.786Z,82.91
2019-03-27T05:52:27.922Z,82.24
2019-03-27T05:53:28.042Z,82.34
2019-03-27T05:54:28.171Z,82.34
2019-03-27T05:55:28.305Z,82.05
2019-03-27T05:56:28.430Z,82.20
2019-03-27T05:57:28.561Z,82.49
2019-03-27T05:58:28.678Z,83.15
2019-03-27T05:59:28.815Z,83.72
2019-03-27T06:00:28.941Z,83.91
2019-03-27T06:01:29.075Z,83.91
2019-03-27T06:02:29.208Z,84.29
2019-03-27T06:03:29.356Z,83.72
2019-03-27T06:04:29.471Z,83.72
2019-03-27T06:05:29.595Z,83.15
2019-03-27T06:06:29.729Z,82.96
2019-03-27T06:07:29.873Z,83.48
2019-03-27T06:08:30.004Z,83.39
2019-03-27T06:09:30.127Z,82.53
2019-03-27T06:10:30.253Z,82.91
2019-03-27T06:11:30.378Z,82.43
2019-03-27T06:12:30.512Z,82.05
2019-03-27T06:13:30.639Z,82.43
2019-03-27T06:14:30.793Z,82.34
2019-03-27T06:15:30.915Z,82.24
2019-03-27T06:16:31.043Z,82.15
2019-03-27T06:17:31.180Z,82.15
2019-03-27T06:18:31.305Z,82.39
2019-03-27T06:19:31.424Z,82.20
2019-03-27T06:20:31.552Z,82.96
2019-03-27T06:21:31.678Z,82.39
2019-03-27T06:22:31.801Z,82.68
2019-03-27T06:23:32.016Z,82.68
2019-03-27T06:24:32.097Z,82.87
2019-03-27T06:25:32.210Z,82.77
2019-03-27T06:26:32.337Z,83.15
2019-03-27T06:27:32.469Z,82.96
2019-03-27T06:28:32.599Z,83.25
2019-03-27T06:29:32.724Z,82.77
2019-03-27T06:30:32.860Z,83.15
2019-03-27T06:31:33.001Z,83.72
2019-03-27T06:32:33.113Z,83.62
2019-03-27T06:33:33.242Z,84.29
2019-03-27T06:34:33.363Z,84.67
2019-03-27T06:35:33.487Z,85.05
2019-03-27T06:36:33.629Z,85.15
2019-03-27T06:37:33.750Z,85.15
2019-03-27T06:38:33.878Z,85.53
2019-03-27T06:39:34.000Z,85.05
2019-03-27T06:40:34.159Z,85.24
2019-03-27T06:41:34.278Z,85.81
2019-03-27T06:42:34.409Z,85.43
2019-03-27T06:43:34.533Z,85.24
2019-03-27T06:44:34.666Z,85.62
2019-03-27T06:45:34.790Z,85.34
2019-03-27T06:46:34.919Z,85.62
2019-03-27T06:47:35.049Z,84.39
2019-03-27T06:48:35.178Z,84.95
2019-03-27T06:49:35.309Z,84.86
2019-03-27T06:50:35.424Z,84.95
2019-03-27T06:51:40.368Z,84.77
2019-03-27T06:52:35.682Z,84.86
2019-03-27T06:53:35.810Z,84.91
2019-03-27T06:54:35.943Z,85.10
2019-03-27T06:55:36.067Z,85.00
2019-03-27T06:56:36.196Z,84.62
2019-03-27T06:57:36.325Z,84.24
2019-03-27T06:58:36.450Z,84.43
2019-03-27T06:59:36.641Z,84.14
2019-03-27T07:00:36.648Z,84.62
2019-03-27T07:01:36.774Z,84.24
2019-03-27T07:02:36.898Z,83.58
2019-03-27T07:03:37.052Z,83.76
2019-03-27T07:04:37.170Z,83.95
2019-03-27T07:05:37.300Z,83.39
2019-03-27T07:06:37.484Z,82.81
2019-03-27T07:07:37.569Z,83.10
2019-03-27T07:08:37.699Z,83.58
2019-03-27T07:09:37.828Z,83.29
2019-03-27T07:10:38.051Z,83.00
2019-03-27T07:11:38.121Z,83.48
2019-03-27T07:12:38.253Z,83.29
2019-03-27T07:13:38.375Z,83.48
2019-03-27T07:14:38.532Z,83.67
2019-03-27T07:15:38.658Z,83.76
2019-03-27T07:16:38.782Z,83.67
2019-03-27T07:17:38.915Z,83.58
2019-03-27T07:18:40.464Z,83.39
2019-03-27T07:19:39.187Z,82.91
2019-03-27T07:20:41.082Z,82.86
2019-03-27T07:21:39.453Z,83.14
2019-03-27T07:22:39.585Z,83.42
2019-03-27T07:23:39.703Z,83.42
2019-03-27T07:24:39.839Z,83.71
2019-03-27T07:25:39.988Z,83.52
2019-03-27T07:26:40.129Z,83.23
2019-03-27T07:27:40.233Z,83.33
2019-03-27T07:28:40.430Z,83.33
2019-03-27T07:29:40.516Z,83.71
2019-03-27T07:30:40.640Z,83.42
2019-03-27T07:31:40.760Z,83.71
2019-03-27T07:32:40.888Z,83.90
2019-03-27T07:33:41.030Z,83.90
2019-03-27T07:34:41.158Z,84.00
2019-03-27T07:35:41.281Z,83.90
2019-03-27T07:36:41.410Z,83.71
2019-03-27T07:37:41.539Z,83.90
2019-03-27T07:38:41.668Z,83.62
2019-03-27T07:39:41.798Z,83.52
2019-03-27T07:40:41.952Z,83.33
2019-03-27T07:41:42.068Z,83.14
2019-03-27T07:42:42.196Z,83.33
2019-03-27T07:43:42.334Z,83.33
2019-03-27T07:44:42.476Z,83.52
2019-03-27T07:45:42.615Z,83.23
2019-03-27T07:46:42.736Z,83.42
2019-03-27T07:47:42.924Z,82.57
2019-03-27T07:48:53.262Z,83.23
2019-03-27T07:49:43.160Z,83.04
2019-03-27T07:50:43.376Z,83.14
2019-03-27T07:51:43.376Z,82.76
2019-03-27T07:52:43.508Z,82.95
2019-03-27T07:53:43.635Z,83.14
2019-03-27T07:54:43.770Z,83.14
2019-03-27T07:55:43.902Z,82.95
2019-03-27T07:56:44.056Z,83.62
2019-03-27T07:57:44.171Z,83.52
2019-03-27T07:58:44.289Z,83.33
2019-03-27T07:59:44.423Z,83.71
2019-03-27T08:00:44.543Z,84.28
2019-03-27T08:01:44.668Z,84.28
2019-03-27T08:02:44.796Z,83.81
2019-03-27T08:03:44.950Z,83.90
2019-03-27T08:04:45.075Z,83.14
2019-03-27T08:05:45.207Z,82.76
2019-03-27T08:06:45.348Z,82.38
2019-03-27T08:07:45.502Z,82.00
2019-03-27T08:08:45.621Z,82.00
2019-03-27T08:09:45.757Z,82.09
2019-03-27T08:10:45.883Z,82.19
2019-03-27T08:11:46.013Z,81.81
2019-03-27T08:12:46.217Z,82.09
2019-03-27T08:13:46.281Z,82.09
2019-03-27T08:14:47.360Z,81.71
2019-03-27T08:15:46.491Z,81.81
2019-03-27T08:16:46.616Z,81.62
2019-03-27T08:17:46.801Z,81.81
2019-03-27T08:18:46.925Z,81.43
2019-03-27T08:19:47.059Z,81.05
2019-03-27T08:20:47.185Z,81.52
2019-03-27T08:21:47.339Z,81.14
2019-03-27T08:22:47.465Z,81.90
2019-03-27T08:23:47.585Z,81.52
2019-03-27T08:24:47.730Z,81.05
2019-03-27T08:25:47.861Z,80.57
2019-03-27T08:26:47.983Z,81.33
2019-03-27T08:27:48.130Z,81.62
2019-03-27T08:28:48.261Z,81.24
2019-03-27T08:29:48.393Z,81.24
2019-03-27T08:30:48.637Z,81.05
2019-03-27T08:31:48.706Z,81.24
2019-03-27T08:32:48.774Z,81.81
2019-03-27T08:33:48.909Z,82.19
2019-03-27T08:34:49.057Z,82.00
2019-03-27T08:35:49.219Z,81.62
2019-03-27T08:36:49.325Z,81.52
2019-03-27T08:37:49.475Z,80.76
2019-03-27T08:38:49.599Z,81.33
2019-03-27T08:39:49.731Z,80.61
2019-03-27T08:40:49.857Z,80.76
2019-03-27T08:41:50.002Z,80.76
2019-03-27T08:42:50.131Z,80.52
2019-03-27T08:43:50.268Z,80.71
2019-03-27T08:44:50.407Z,80.13
2019-03-27T08:45:50.554Z,80.33
2019-03-27T08:46:50.678Z,80.42
2019-03-27T08:47:50.809Z,80.23
2019-03-27T08:48:50.948Z,79.85
2019-03-27T08:49:51.077Z,79.94
2019-03-27T08:50:51.195Z,80.04
2019-03-27T08:51:51.336Z,80.23
2019-03-27T08:52:51.465Z,80.13
2019-03-27T08:53:51.593Z,80.33
2019-03-27T08:54:51.724Z,80.52
2019-03-27T08:55:51.888Z,80.42
2019-03-27T08:56:51.998Z,80.23
2019-03-27T08:57:52.133Z,80.04
2019-03-27T08:58:52.251Z,79.85
2019-03-27T08:59:52.405Z,79.47
2019-03-27T09:00:52.535Z,79.19
2019-03-27T09:01:52.655Z,79.47
2019-03-27T09:02:52.791Z,80.13
2019-03-27T09:03:52.944Z,79.75
2019-03-27T09:04:53.070Z,79.66
2019-03-27T09:05:53.191Z,78.71
2019-03-27T09:06:53.325Z,78.71
2019-03-27T09:07:53.469Z,78.71
2019-03-27T09:08:53.593Z,78.90
2019-03-27T09:09:53.732Z,79.38
2019-03-27T09:10:53.871Z,79.94
2019-03-27T09:11:53.992Z,79.22
2019-03-27T09:12:54.126Z,78.99
2019-03-27T09:13:54.249Z,78.42
2019-03-27T09:14:54.406Z,78.80
2019-03-27T09:15:54.528Z,78.85
2019-03-27T09:16:54.646Z,78.90
2019-03-27T09:17:54.776Z,78.56
2019-03-27T09:18:54.924Z,78.27
2019-03-27T09:19:55.061Z,78.37
2019-03-27T09:20:55.179Z,78.56
2019-03-27T09:21:55.316Z,77.80
2019-03-27T09:22:55.437Z,77.09
2019-03-27T09:23:55.565Z,76.94
2019-03-27T09:24:55.695Z,77.22
2019-03-27T09:25:55.813Z,77.03
2019-03-27T09:26:55.942Z,77.03
2019-03-27T09:27:56.073Z,77.13
2019-03-27T09:28:56.207Z,76.27
2019-03-27T09:29:56.329Z,76.27
2019-03-27T09:30:56.459Z,75.89
2019-03-27T09:31:56.584Z,75.84
2019-03-27T09:32:56.711Z,75.93
2019-03-27T09:33:56.836Z,75.74
2019-03-27T09:34:56.967Z,75.55
2019-03-27T09:35:57.120Z,75.45
2019-03-27T09:36:57.229Z,75.36
2019-03-27T09:37:57.365Z,75.36
2019-03-27T09:38:57.493Z,75.84
2019-03-27T09:39:57.623Z,75.64
2019-03-27T09:40:57.764Z,75.45
2019-03-27T09:41:57.889Z,75.36
2019-03-27T09:42:58.008Z,75.16
2019-03-27T09:43:58.140Z,75.64
2019-03-27T09:44:58.271Z,75.42
2019-03-27T09:45:58.403Z,76.65
2019-03-27T09:46:58.528Z,76.84
2019-03-27T09:47:58.664Z,77.22
2019-03-27T09:48:58.783Z,76.94
2019-03-27T09:49:58.922Z,75.79
2019-03-27T09:50:59.039Z,75.89
2019-03-27T09:51:59.192Z,75.89
2019-03-27T09:52:59.302Z,75.89
2019-03-27T09:53:59.432Z,76.08
2019-03-27T09:54:59.575Z,76.27
2019-03-27T09:55:59.707Z,75.89
2019-03-27T09:56:59.837Z,76.31
2019-03-27T09:57:59.952Z,76.31
2019-03-27T09:59:00.103Z,75.84
2019-03-27T10:00:00.402Z,75.64
2019-03-27T10:01:00.352Z,75.74
2019-03-27T10:02:00.486Z,75.26
2019-03-27T10:03:00.625Z,75.78
2019-03-27T10:04:00.756Z,75.30
2019-03-27T10:05:00.879Z,74.25
2019-03-27T10:06:01.013Z,73.74
2019-03-27T10:07:01.169Z,73.55
2019-03-27T10:08:01.298Z,73.36
2019-03-27T10:09:01.430Z,72.60
2019-03-27T10:10:01.558Z,72.16
2019-03-27T10:11:01.699Z,72.25
2019-03-27T10:12:01.820Z,72.06
2019-03-27T10:13:01.952Z,71.87
2019-03-27T10:14:02.106Z,71.68
2019-03-27T10:15:02.231Z,71.58
2019-03-27T10:16:02.372Z,71.58
2019-03-27T10:17:02.531Z,70.92
2019-03-27T10:18:02.643Z,70.82
2019-03-27T10:19:02.780Z,69.33
2019-03-27T10:20:04.196Z,69.48
2019-03-27T10:21:03.034Z,69.48
2019-03-27T10:22:03.177Z,69.48
2019-03-27T10:23:03.329Z,69.81
2019-03-27T10:24:03.441Z,69.62
2019-03-27T10:25:03.586Z,69.23
2019-03-27T10:26:03.734Z,68.85
2019-03-27T10:27:03.860Z,67.39
2019-03-27T10:28:03.988Z,67.23
2019-03-27T10:29:04.121Z,68.38
2019-03-27T10:30:04.287Z,67.99
2019-03-27T10:31:04.429Z,68.28
2019-03-27T10:32:04.551Z,68.85
2019-03-27T10:33:04.684Z,68.28
2019-03-27T10:34:04.813Z,66.94
2019-03-27T10:35:04.952Z,66.75
2019-03-27T10:36:05.072Z,68.28
2019-03-27T10:37:05.207Z,67.14
2019-03-27T10:38:05.333Z,67.99
2019-03-27T10:39:05.470Z,65.99
2019-03-27T10:40:05.627Z,63.04
2019-03-27T10:41:05.737Z,61.80
2019-03-27T10:42:05.872Z,61.13
2019-03-27T10:43:06.018Z,59.92
2019-03-27T10:44:06.143Z,59.92
2019-03-27T10:45:06.363Z,59.44
2019-03-27T10:46:06.423Z,59.63
2019-03-27T10:47:06.575Z,60.68
2019-03-27T10:48:06.706Z,61.44
2019-03-27T10:49:06.833Z,62.71
2019-03-27T10:50:16.987Z,63.39
2019-03-27T10:51:07.129Z,63.10
2019-03-27T10:52:07.263Z,62.81
2019-03-27T10:53:07.400Z,60.90
2019-03-27T10:54:07.531Z,59.28
2019-03-27T10:55:07.660Z,58.29
2019-03-27T10:56:07.799Z,58.11
2019-03-27T10:57:07.934Z,57.82
2019-03-27T10:58:08.073Z,57.92
2019-03-27T10:59:08.199Z,58.77
2019-03-27T11:00:08.340Z,58.48
2019-03-27T11:01:08.473Z,58.14
2019-03-27T11:02:08.644Z,58.42
2019-03-27T11:03:08.735Z,58.80
2019-03-27T11:04:08.874Z,58.14
2019-03-27T11:05:08.999Z,56.89
2019-03-27T11:06:09.176Z,57.28
2019-03-27T11:07:09.280Z,56.99
2019-03-27T11:08:11.465Z,55.40
2019-03-27T11:09:09.554Z,55.40
2019-03-27T11:10:09.706Z,53.99
2019-03-27T11:11:09.830Z,53.51
2019-03-27T11:12:09.967Z,52.77
2019-03-27T11:13:10.095Z,52.08
2019-03-27T11:14:10.240Z,53.61
2019-03-27T11:15:10.368Z,53.89
2019-03-27T11:16:10.500Z,53.96
2019-03-27T11:17:10.645Z,54.37
2019-03-27T11:18:10.799Z,54.63
2019-03-27T11:19:10.936Z,54.91
2019-03-27T11:20:11.068Z,55.49
2019-03-27T11:21:11.208Z,55.27
2019-03-27T11:22:11.345Z,56.41
2019-03-27T11:23:11.471Z,55.75
2019-03-27T11:24:11.606Z,56.04
2019-03-27T11:25:11.733Z,56.04
2019-03-27T11:26:11.865Z,57.37
2019-03-27T11:27:12.001Z,57.09
2019-03-27T11:28:12.134Z,56.89
2019-03-27T11:29:12.274Z,57.46
2019-03-27T11:30:12.405Z,57.09
2019-03-27T11:31:12.528Z,56.04
2019-03-27T11:32:12.660Z,56.13
2019-03-27T11:33:12.799Z,55.75
2019-03-27T11:34:12.927Z,55.27
2019-03-27T11:35:13.062Z,54.03
2019-03-27T11:36:13.193Z,53.55
2019-03-27T11:37:13.345Z,53.45
2019-03-27T11:38:13.462Z,52.59
2019-03-27T11:39:13.613Z,52.62
2019-03-27T11:40:13.745Z,51.95
2019-03-27T11:41:13.871Z,52.72
2019-03-27T11:42:14.008Z,51.89
2019-03-27T11:43:14.142Z,52.36
2019-03-27T11:44:14.264Z,53.29
2019-03-27T11:45:14.414Z,52.24
2019-03-27T11:46:14.536Z,51.38
2019-03-27T11:47:14.668Z,51.48
2019-03-27T11:48:14.817Z,51.83
2019-03-27T11:49:14.949Z,52.03
2019-03-27T11:50:15.085Z,52.12
2019-03-27T11:51:15.221Z,52.31
2019-03-27T11:52:15.362Z,52.79
2019-03-27T11:53:15.509Z,52.88
2019-03-27T11:54:15.636Z,52.59
2019-03-27T11:55:15.765Z,53.08
2019-03-27T11:56:15.904Z,53.27
2019-03-27T11:57:16.041Z,52.50
2019-03-27T11:58:16.195Z,52.88
2019-03-27T11:59:16.326Z,52.40
2019-03-27T12:00:16.456Z,52.59
2019-03-27T12:01:16.602Z,53.45
2019-03-27T12:02:16.733Z,54.50
2019-03-27T12:03:16.870Z,53.45
2019-03-27T12:04:17.000Z,53.27
2019-03-27T12:05:17.138Z,52.69
2019-03-27T12:06:17.276Z,51.93
2019-03-27T12:07:17.421Z,52.22
2019-03-27T12:08:17.558Z,52.40
2019-03-27T12:09:17.687Z,52.69
2019-03-27T12:10:17.826Z,52.40
2019-03-27T12:11:18.085Z,53.08
2019-03-27T12:12:18.244Z,53.55
2019-03-27T12:13:18.324Z,53.17
2019-03-27T12:14:18.418Z,51.86
2019-03-27T12:15:18.560Z,51.38
2019-03-27T12:16:18.720Z,51.67
2019-03-27T12:17:18.845Z,52.05
2019-03-27T12:18:18.981Z,51.09
2019-03-27T12:19:19.130Z,51.50
2019-03-27T12:20:19.264Z,50.55
2019-03-27T12:21:19.389Z,49.69
2019-03-27T12:22:19.525Z,48.64
2019-03-27T12:23:19.672Z,48.18
2019-03-27T12:24:19.821Z,47.97
2019-03-27T12:25:19.955Z,47.42
2019-03-27T12:26:20.081Z,47.61
2019-03-27T12:27:20.213Z,46.84
2019-03-27T12:28:20.401Z,47.66
2019-03-27T12:29:20.511Z,46.48
2019-03-27T12:30:20.646Z,45.31
2019-03-27T12:31:20.773Z,44.54
2019-03-27T12:32:20.928Z,44.45
2019-03-27T12:33:21.072Z,44.09
2019-03-27T12:34:21.214Z,42.79
2019-03-27T12:35:21.341Z,41.54
2019-03-27T12:36:21.491Z,40.72
2019-03-27T12:37:21.631Z,39.78
2019-03-27T12:38:21.762Z,39.29
2019-03-27T12:39:21.910Z,39.24
2019-03-27T12:40:22.054Z,37.34
2019-03-27T12:41:22.199Z,37.37
2019-03-27T12:42:22.330Z,36.10
2019-03-27T12:43:22.473Z,36.19
2019-03-27T12:44:22.647Z,35.24
2019-03-27T12:45:22.778Z,36.00
2019-03-27T12:46:22.924Z,35.62
2019-03-27T12:47:23.057Z,33.92
2019-03-27T12:48:23.228Z,32.87
2019-03-27T12:49:23.354Z,32.36
2019-03-27T12:50:23.486Z,34.46
2019-03-27T12:51:23.626Z,34.06
2019-03-27T12:52:23.807Z,34.08
2019-03-27T12:53:23.950Z,34.64
2019-03-27T12:54:24.088Z,34.69